Time;durP1;ratioP1;P1;durP2;ratioP2;P2;SDS_P1;SDS_P2;PMS_P1;PMS_P2;Temp;Humidity;BMP_temperature;BMP_pressure;BME280_temperature;BME280_humidity;BME280_pressure;Samples;Min_cycle;Max_cycle;Signal;HPM_P1;HPM_P2
2022/06/03 00:02:44;;;;;;;6.22;5.50;;;;;;;18.92;71.37;101155.38;4930588;28;102317;-85
2022/06/03 00:05:31;;;;;;;6.67;6.00;;;;;;;18.93;71.48;101165.28;4919737;28;103982;-85
2022/06/03 00:08:28;;;;;;;6.85;6.00;;;;;;;18.92;71.16;101169.16;4929489;28;102559;-85
2022/06/03 00:11:22;;;;;;;6.53;5.75;;;;;;;18.93;71.36;101173.56;4932689;28;102085;-86
2022/06/03 00:14:06;;;;;;;6.32;5.72;;;;;;;18.92;71.19;101171.91;4913778;28;102355;-85
2022/06/03 00:16:47;;;;;;;7.95;6.03;;;;;;;18.93;71.54;101179.09;4929297;28;103717;-85
2022/06/03 00:19:35;;;;;;;7.65;5.63;;;;;;;18.93;71.28;101178.25;4926147;28;102719;-85
2022/06/03 00:22:21;;;;;;;7.53;5.90;;;;;;;18.92;71.20;101182.94;4932696;28;102459;-86
2022/06/03 00:25:11;;;;;;;6.10;5.50;;;;;;;18.92;71.44;101177.44;4941085;28;102367;-85
2022/06/03 00:27:59;;;;;;;6.15;5.40;;;;;;;18.93;71.27;101183.75;4922609;28;104013;-85
2022/06/03 00:30:37;;;;;;;6.28;5.32;;;;;;;18.92;71.57;101188.47;4931678;28;103473;-86
2022/06/03 00:33:34;;;;;;;6.90;5.40;;;;;;;18.93;71.45;101183.75;4945221;28;102503;-86
2022/06/03 00:36:24;;;;;;;8.15;6.32;;;;;;;18.93;71.33;101198.41;4932165;28;103052;-86
2022/06/03 00:39:11;;;;;;;6.25;5.65;;;;;;;18.93;71.37;101195.63;4934088;28;103357;-85
2022/06/03 00:41:54;;;;;;;6.47;5.80;;;;;;;18.94;71.33;101183.47;4941571;28;102745;-85
2022/06/03 00:44:56;;;;;;;6.93;5.78;;;;;;;18.95;71.23;101189.78;4932789;28;102149;-85
2022/06/03 00:47:42;;;;;;;6.95;5.50;;;;;;;18.95;71.39;101193.34;4935520;28;102195;-85
2022/06/03 00:50:24;;;;;;;5.75;5.25;;;;;;;18.95;71.33;101187.84;4933616;28;104094;-86
2022/06/03 00:53:12;;;;;;;5.88;5.28;;;;;;;18.96;71.36;101192.22;4937956;28;102224;-85
2022/06/03 00:55:55;;;;;;;6.32;5.70;;;;;;;18.96;71.34;101180.38;4935476;28;102196;-86
2022/06/03 00:58:46;;;;;;;6.38;5.78;;;;;;;18.96;71.16;101183.13;4934044;28;102239;-86
2022/06/03 01:01:25;;;;;;;7.75;5.72;;;;;;;18.98;71.37;101188.34;4934634;28;103934;-86
2022/06/03 01:04:13;;;;;;;;;;;;;;;18.97;71.24;101190.31;4925786;28;103420;-86
2022/06/03 01:06:51;;;;;;;9.00;5.95;;;;;;;18.98;71.26;101191.91;4929912;28;102897;-86
2022/06/03 01:09:52;;;;;;;6.72;6.03;;;;;;;18.97;71.39;101184.78;4934033;28;102478;-86
2022/06/03 01:12:42;;;;;;;6.93;5.93;;;;;;;18.98;71.41;101185.59;4934041;28;107861;-86
2022/06/03 01:15:24;;;;;;;6.75;6.03;;;;;;;18.99;71.24;101189.97;4935148;28;102303;-84
2022/06/03 01:18:05;;;;;;;10.65;6.15;;;;;;;18.97;71.22;101187.53;4933263;28;102570;-85
2022/06/03 01:20:39;;;;;;;8.38;6.55;;;;;;;18.98;71.38;101191.13;4935874;28;103094;-86
2022/06/03 01:23:42;;;;;;;7.45;6.13;;;;;;;18.98;71.27;101191.91;4927503;28;103890;-85
2022/06/03 01:26:31;;;;;;;7.85;6.15;;;;;;;18.96;71.30;101189.47;4936809;28;102363;-85
2022/06/03 01:29:31;;;;;;;6.43;5.80;;;;;;;18.98;71.40;101196.63;4931731;28;102065;-86
2022/06/03 01:32:41;;;;;;;7.72;6.20;;;;;;;18.98;71.47;101197.44;4931740;28;102648;-85
2022/06/03 01:35:35;;;;;;;7.22;6.35;;;;;;;19.00;71.32;101194.34;4929959;28;103145;-85
2022/06/03 01:38:08;;;;;;;6.75;6.05;;;;;;;18.99;71.53;101203.75;4933627;28;102639;-85
2022/06/03 01:40:49;;;;;;;6.50;5.85;;;;;;;18.99;71.41;101192.72;4928438;28;102142;-85
2022/06/03 01:43:41;;;;;;;6.38;5.78;;;;;;;18.99;71.45;101192.72;4934325;28;102370;-84
2022/06/03 01:46:28;;;;;;;8.10;6.53;;;;;;;18.99;71.42;101187.22;4927943;28;108815;-85
2022/06/03 01:49:35;;;;;;;7.22;6.50;;;;;;;18.98;71.45;101191.91;4934429;28;102564;-84
2022/06/03 01:52:34;;;;;;;7.65;6.68;;;;;;;18.98;71.59;101191.13;4927948;28;102662;-85
2022/06/03 01:55:47;;;;;;;8.52;6.38;;;;;;;18.97;71.37;101195.81;4921299;28;102499;-84
2022/06/03 01:58:44;;;;;;;6.78;6.18;;;;;;;18.97;71.33;101190.31;4933850;28;108040;-85
2022/06/03 02:01:30;;;;;;;6.70;6.10;;;;;;;18.98;71.57;101202.94;4910023;28;102837;-85
2022/06/03 02:04:12;;;;;;;8.40;6.30;;;;;;;18.97;71.41;101193.06;4931956;28;102449;-86
2022/06/03 02:07:23;;;;;;;6.85;6.15;;;;;;;18.96;71.60;101194.97;4920196;28;102883;-86
2022/06/03 02:10:37;;;;;;;9.77;6.78;;;;;;;18.97;71.44;101195.81;4896727;28;104158;-86
2022/06/03 02:13:49;;;;;;;6.80;6.20;;;;;;;18.98;71.42;101207.66;4933531;28;102226;-87
2022/06/03 02:16:52;;;;;;;8.70;6.95;;;;;;;18.98;71.32;101210.41;4924565;28;102307;-85
2022/06/03 02:20:01;;;;;;;6.80;6.10;;;;;;;18.98;71.16;101214.00;4931729;28;102193;-84
2022/06/03 02:22:57;;;;;;;7.78;7.00;;;;;;;18.99;71.29;101217.56;4917606;28;107898;-84
2022/06/03 02:25:43;;;;;;;7.60;6.90;;;;;;;18.99;71.31;101223.06;4915694;28;102120;-84
2022/06/03 02:28:23;;;;;;;7.97;6.43;;;;;;;18.98;71.21;101236.06;4927804;28;102210;-85
2022/06/03 02:31:16;;;;;;;7.40;6.70;;;;;;;18.97;71.45;101234.44;4931873;28;102595;-86
2022/06/03 02:34:09;;;;;;;7.15;6.30;;;;;;;18.98;71.51;101238.00;4930234;28;103898;-84
2022/06/03 02:36:57;;;;;;;7.18;6.45;;;;;;;18.99;71.25;101242.38;4935748;28;102598;-84
2022/06/03 02:39:51;;;;;;;7.90;6.40;;;;;;;18.97;71.38;101242.72;4915286;28;102492;-85
2022/06/03 02:42:53;;;;;;;6.72;6.10;;;;;;;18.98;71.28;101243.50;4891313;28;102771;-84
2022/06/03 02:45:51;;;;;;;7.75;6.40;;;;;;;18.97;71.31;101239.94;4930138;28;104213;-85
2022/06/03 02:49:08;;;;;;;7.63;6.30;;;;;;;18.96;71.58;101250.13;4930811;28;102425;-85
2022/06/03 02:52:00;;;;;;;7.07;6.30;;;;;;;18.96;71.29;101255.66;4889513;28;102442;-86
2022/06/03 02:54:56;;;;;;;7.28;6.63;;;;;;;18.99;71.06;101256.16;4919875;28;102580;-86
2022/06/03 02:57:40;;;;;;;6.85;6.22;;;;;;;19.00;71.13;101260.53;4934931;28;103907;-87
2022/06/03 03:00:32;;;;;;;6.22;5.72;;;;;;;19.00;71.33;101255.03;4934861;28;102365;-85
2022/06/03 03:03:37;;;;;;;6.68;5.97;;;;;;;19.00;71.37;101258.59;4934304;28;102344;-85
2022/06/03 03:06:45;;;;;;;6.38;5.78;;;;;;;19.00;71.55;101260.53;4934132;28;102153;-85
2022/06/03 03:09:33;;;;;;;6.55;5.97;;;;;;;19.00;71.59;101261.34;4937243;28;103225;-86
2022/06/03 03:12:26;;;;;;;6.75;6.15;;;;;;;19.02;71.36;101269.34;4938284;28;102450;-86
2022/06/03 03:15:23;;;;;;;6.63;6.03;;;;;;;19.03;71.33;101265.44;4921343;28;102568;-85
2022/06/03 03:18:26;;;;;;;6.40;5.80;;;;;;;19.02;71.30;101270.16;4939221;28;102706;-84
2022/06/03 03:21:14;;;;;;;6.47;5.88;;;;;;;19.04;71.45;101278.09;4936700;28;107983;-86
2022/06/03 03:24:25;;;;;;;6.68;5.97;;;;;;;19.05;71.41;101269.53;4940210;28;102450;-85
2022/06/03 03:27:08;;;;;;;7.30;6.03;;;;;;;19.06;71.07;101278.59;4921810;28;102145;-86
2022/06/03 03:29:52;;;;;;;6.20;5.63;;;;;;;19.06;71.12;101281.38;4933013;28;102247;-85
2022/06/03 03:32:28;;;;;;;6.32;5.72;;;;;;;19.07;71.33;101285.75;4933728;28;103900;-85
2022/06/03 03:35:24;;;;;;;4.97;4.57;;;;;;;19.06;71.01;101293.22;4929144;28;102412;-85
2022/06/03 03:38:45;;;;;;;6.28;5.75;;;;;;;19.06;71.12;101297.91;4924706;28;102590;-85
2022/06/03 03:42:11;;;;;;;6.13;5.60;;;;;;;19.07;71.38;101294.03;4893957;28;102499;-86
2022/06/03 03:45:15;;;;;;;6.78;5.40;;;;;;;19.06;71.25;101298.72;4773263;29;107842;-86
2022/06/03 03:48:16;;;;;;;6.18;5.57;;;;;;;19.08;71.22;101302.00;4876321;28;102640;-85
2022/06/03 03:51:06;;;;;;;5.85;5.18;;;;;;;19.08;71.17;101306.72;4897790;28;102368;-86
2022/06/03 03:54:06;;;;;;;5.70;5.30;;;;;;;19.09;71.30;101313.84;4930955;28;102127;-85
2022/06/03 03:57:09;;;;;;;5.70;5.20;;;;;;;19.10;71.04;101320.97;4892420;28;103858;-85
2022/06/03 04:00:14;;;;;;;6.00;5.32;;;;;;;19.10;71.09;101326.50;4934686;28;102542;-86
2022/06/03 04:03:18;;;;;;;5.55;5.10;;;;;;;19.10;71.31;101330.06;4928237;28;102300;-86
2022/06/03 04:06:21;;;;;;;5.93;5.38;;;;;;;19.11;71.00;101336.41;4926932;28;102877;-86
2022/06/03 04:09:08;;;;;;;6.05;4.90;;;;;;;19.11;71.13;101333.63;4934870;28;108037;-85
2022/06/03 04:11:55;;;;;;;5.88;5.38;;;;;;;19.10;71.27;101327.31;4934947;28;102519;-86
2022/06/03 04:14:53;;;;;;;5.53;5.10;;;;;;;19.13;71.35;101325.88;4936175;28;102455;-85
2022/06/03 04:17:49;;;;;;;5.70;4.97;;;;;;;19.14;70.88;101341.28;4927793;28;102190;-86
2022/06/03 04:20:55;;;;;;;7.05;5.35;;;;;;;19.12;71.19;101341.63;4898227;28;103924;-86
2022/06/03 04:23:44;;;;;;;5.85;5.35;;;;;;;19.13;71.34;101353.47;4935152;28;102262;-85
2022/06/03 04:26:36;;;;;;;5.18;4.78;;;;;;;19.13;71.27;101356.22;4933930;28;102833;-85
2022/06/03 04:29:48;;;;;;;6.53;5.38;;;;;;;19.13;71.24;101358.97;4936058;28;102574;-85
2022/06/03 04:32:56;;;;;;;6.15;5.65;;;;;;;19.11;71.31;101359.31;4935582;28;103903;-85
2022/06/03 04:35:37;;;;;;;;;;;;;;;19.12;71.09;101360.13;4927286;28;102407;-86
2022/06/03 04:38:47;;;;;;;6.30;5.70;;;;;;;19.11;71.22;101366.75;4935833;28;102214;-86
2022/06/03 04:41:53;;;;;;;5.63;5.13;;;;;;;19.10;71.18;101359.59;4934730;28;102744;-87
2022/06/03 04:45:16;;;;;;;5.90;5.50;;;;;;;19.10;71.19;101373.41;4933948;28;104443;-86
2022/06/03 04:48:18;;;;;;;5.38;4.80;;;;;;;19.11;71.47;101372.25;4937151;28;102439;-85
2022/06/03 04:51:21;;;;;;;5.45;5.03;;;;;;;19.11;71.06;101367.59;4932623;28;102543;-85
2022/06/03 04:54:27;;;;;;;6.07;5.47;;;;;;;19.11;71.28;101373.09;4924212;28;102039;-86
2022/06/03 04:57:41;;;;;;;5.60;5.10;;;;;;;19.12;71.03;101373.91;4936506;28;104030;-86
2022/06/03 05:00:22;;;;;;;5.88;5.38;;;;;;;19.13;71.17;101376.34;4934798;28;102437;-85
2022/06/03 05:03:22;;;;;;;5.82;5.25;;;;;;;19.12;71.21;101371.97;4935207;28;102192;-85
2022/06/03 05:06:25;;;;;;;5.60;5.13;;;;;;;19.13;71.31;101370.03;4935521;28;102137;-85
2022/06/03 05:09:33;;;;;;;5.60;5.10;;;;;;;19.14;71.21;101366.13;4934353;28;103852;-85
2022/06/03 05:12:47;;;;;;;5.63;5.10;;;;;;;19.15;71.33;101367.78;4932515;28;102428;-85
2022/06/03 05:16:05;;;;;;;5.30;4.80;;;;;;;19.16;71.06;101363.88;4916622;28;102268;-85
2022/06/03 05:19:13;;;;;;;4.80;4.40;;;;;;;19.18;71.21;101372.66;4935215;28;103429;-85
2022/06/03 05:22:21;;;;;;;5.15;4.72;;;;;;;19.19;71.15;101368.78;4869971;28;108478;-85
2022/06/03 05:25:18;;;;;;;4.50;4.20;;;;;;;19.20;71.09;101378.69;4934130;28;102505;-86
2022/06/03 05:28:23;;;;;;;4.60;4.20;;;;;;;19.20;71.11;101370.41;4934530;28;102601;-86
2022/06/03 05:31:17;;;;;;;5.55;5.05;;;;;;;19.22;70.96;101370.88;4933097;28;102155;-86
2022/06/03 05:34:31;;;;;;;5.35;4.85;;;;;;;19.22;70.98;101381.91;4933739;28;108121;-86
2022/06/03 05:37:42;;;;;;;5.22;4.70;;;;;;;19.24;71.23;101385.19;4932955;28;102673;-86
2022/06/03 05:40:38;;;;;;;8.27;4.30;;;;;;;19.26;70.83;101385.72;4934590;28;102379;-85
2022/06/03 05:43:21;;;;;;;5.82;4.50;;;;;;;19.28;71.00;101383.44;4925348;28;102344;-85
2022/06/03 05:46:09;;;;;;;5.05;4.28;;;;;;;19.29;70.98;101390.56;4932529;28;103950;-86
2022/06/03 05:48:49;;;;;;;6.43;4.40;;;;;;;19.31;70.64;101379.25;4931813;28;102249;-86
2022/06/03 05:51:35;;;;;;;5.35;4.45;;;;;;;19.33;70.78;101379.72;4935008;28;102029;-85
2022/06/03 05:54:12;;;;;;;5.13;4.68;;;;;;;19.33;71.08;101388.84;4936660;28;102191;-86
2022/06/03 05:56:45;;;;;;;7.22;4.93;;;;;;;19.35;71.02;101381.03;4934774;28;103940;-86
2022/06/03 05:59:24;;;;;;;4.63;4.18;;;;;;;19.37;71.05;101392.59;4934942;28;102352;-87
2022/06/03 06:02:01;;;;;;;;;;;;;;;19.39;70.78;101384.81;4897223;28;102363;-85
2022/06/03 06:04:43;;;;;;;4.38;3.97;;;;;;;19.40;70.81;101380.94;4897870;28;102479;-86
2022/06/03 06:07:21;;;;;;;5.55;4.20;;;;;;;19.41;70.98;101379.81;4892205;28;107001;-85
2022/06/03 06:09:53;;;;;;;;;;;;;;;19.43;70.81;101380.28;4892831;28;102296;-85
2022/06/03 06:12:29;;;;;;;4.90;4.50;;;;;;;19.42;70.67;101367.63;4877584;28;102702;-85
2022/06/03 06:15:27;;;;;;;5.27;4.67;;;;;;;19.42;70.68;101381.41;4891621;28;102577;-88
2022/06/03 06:18:03;;;;;;;4.80;4.30;;;;;;;19.45;70.74;101377.22;4892632;28;103905;-85
2022/06/03 06:20:45;;;;;;;5.45;4.32;;;;;;;19.47;70.93;101376.91;4896198;28;102208;-86
2022/06/03 06:23:17;;;;;;;5.70;4.70;;;;;;;19.47;70.43;101368.63;4890156;28;102235;-85
2022/06/03 06:26:04;;;;;;;5.75;4.35;;;;;;;19.49;70.77;101366.38;4892403;28;102620;-85
2022/06/03 06:28:51;;;;;;;5.07;4.67;;;;;;;19.49;70.69;101372.69;4913750;28;103904;-84
2022/06/03 06:31:44;;;;;;;4.55;3.70;;;;;;;19.52;70.68;101374.84;4888602;28;102438;-85
2022/06/03 06:34:30;;;;;;;5.97;3.58;;;;;;;19.54;70.57;101368.97;4887052;28;103074;-85
2022/06/03 06:37:33;;;;;;;4.60;4.15;;;;;;;19.54;70.82;101363.47;4894827;28;102810;-85
2022/06/03 06:40:25;;;;;;;4.20;3.80;;;;;;;19.54;70.47;101368.97;4884614;28;104008;-86
2022/06/03 06:43:07;;;;;;;4.80;4.40;;;;;;;19.56;70.63;101363.97;4889554;28;102872;-87
2022/06/03 06:45:45;;;;;;;5.07;4.00;;;;;;;19.55;70.68;101370.63;4888486;28;102766;-86
2022/06/03 06:48:31;;;;;;;4.35;3.92;;;;;;;19.60;70.71;101359.44;4889069;28;104196;-84
2022/06/03 06:51:04;;;;;;;4.85;3.70;;;;;;;19.62;70.64;101368.25;4891032;28;103920;-84
2022/06/03 06:53:40;;;;;;;3.60;3.25;;;;;;;19.62;70.73;101371.00;4895389;28;102791;-86
2022/06/03 06:56:16;;;;;;;4.30;3.90;;;;;;;19.62;70.59;101365.47;4889735;28;102541;-86
2022/06/03 06:58:50;;;;;;;4.03;3.65;;;;;;;19.62;70.67;101377.38;4896310;28;102056;-85
2022/06/03 07:01:20;;;;;;;4.00;3.70;;;;;;;19.65;70.94;101373.13;4916209;28;104208;-85
2022/06/03 07:03:58;;;;;;;7.13;4.43;;;;;;;19.66;70.60;101383.06;4928883;28;104442;-86
2022/06/03 07:06:34;;;;;;;4.40;3.87;;;;;;;19.67;70.85;101371.69;4929281;28;104011;-85
2022/06/03 07:09:29;;;;;;;3.92;3.63;;;;;;;19.66;70.60;101380.31;4927664;28;102918;-85
2022/06/03 07:12:03;;;;;;;4.20;3.80;;;;;;;19.65;70.78;101370.38;4925958;28;104135;-86
2022/06/03 07:14:33;;;;;;;4.15;3.83;;;;;;;19.64;70.70;101382.56;4931878;28;102712;-85
2022/06/03 07:20:08;;;;;;;4.50;4.10;;;;;;;19.64;70.56;101393.59;4934184;28;102866;-85
2022/06/03 07:22:43;;;;;;;4.00;3.70;;;;;;;19.65;70.65;101386.94;4930678;28;103916;-86
2022/06/03 07:25:20;;;;;;;5.20;4.43;;;;;;;19.64;70.49;101393.59;4934484;28;102701;-86
2022/06/03 07:27:52;;;;;;;5.30;4.05;;;;;;;19.64;70.52;101397.16;4932985;28;102225;-85
2022/06/03 07:30:22;;;;;;;4.07;3.72;;;;;;;19.65;70.36;101392.47;4949220;28;102487;-85
2022/06/03 07:32:59;;;;;;;4.60;4.20;;;;;;;19.65;70.40;101389.69;4932631;28;103839;-85
2022/06/03 07:35:37;;;;;;;3.97;3.40;;;;;;;19.66;70.38;101394.91;4930985;28;102092;-85
2022/06/03 07:38:17;;;;;;;3.58;3.28;;;;;;;19.66;70.49;101405.16;4934240;28;102579;-85
2022/06/03 07:40:51;;;;;;;3.78;3.47;;;;;;;19.65;70.34;101403.50;4933197;28;102090;-86
2022/06/03 07:43:26;;;;;;;4.75;4.22;;;;;;;19.66;70.34;101394.91;4932284;28;104130;-85
2022/06/03 07:45:58;;;;;;;4.22;3.80;;;;;;;19.66;70.36;101400.44;4930945;28;102426;-86
2022/06/03 07:48:28;;;;;;;4.00;3.65;;;;;;;19.65;70.47;101415.41;4932864;28;102519;-86
2022/06/03 07:50:58;;;;;;;4.15;3.75;;;;;;;19.66;70.44;101402.41;4934550;28;102812;-86
2022/06/03 07:53:39;;;;;;;4.53;4.10;;;;;;;19.66;70.42;101405.16;4930936;28;104276;-85
2022/06/03 07:56:07;;;;;;;5.70;4.05;;;;;;;19.65;70.34;101404.34;4926123;28;102546;-85
2022/06/03 07:58:38;;;;;;;4.47;4.07;;;;;;;19.66;70.28;101405.97;4928561;28;102341;-86
2022/06/03 08:01:05;;;;;;;4.68;4.18;;;;;;;19.67;70.37;101417.81;4923753;28;103146;-85
2022/06/03 08:03:36;;;;;;;4.57;4.17;;;;;;;19.67;70.50;101423.34;4925334;28;105601;-86
2022/06/03 08:06:08;;;;;;;4.55;4.20;;;;;;;19.67;70.52;101415.88;4931242;28;102613;-85
2022/06/03 08:11:31;;;;;;;4.20;3.90;;;;;;;19.67;70.31;101413.13;4929753;28;102517;-85
2022/06/03 08:14:04;;;;;;;5.13;4.63;;;;;;;19.67;70.29;101412.31;4930362;28;104038;-86
2022/06/03 08:16:34;;;;;;;4.13;3.70;;;;;;;19.67;70.71;101417.81;4926580;28;102974;-86
2022/06/03 08:19:07;;;;;;;4.20;3.90;;;;;;;19.69;70.23;101421.09;4929958;28;102442;-85
2022/06/03 08:21:41;;;;;;;5.88;4.40;;;;;;;19.69;70.59;101421.09;4930442;28;102606;-86
2022/06/03 08:24:12;;;;;;;4.13;3.83;;;;;;;19.69;70.31;101426.63;4946431;28;104083;-86
2022/06/03 08:26:42;;;;;;;4.20;3.90;;;;;;;19.68;70.23;101424.97;4934500;28;102256;-83
2022/06/03 08:29:20;;;;;;;4.57;4.07;;;;;;;19.69;70.56;101432.16;4943248;28;102414;-85
2022/06/03 08:31:50;;;;;;;4.28;3.88;;;;;;;19.70;70.46;101439.28;4928391;28;102810;-85
2022/06/03 08:34:22;;;;;;;3.72;3.42;;;;;;;19.69;70.50;101432.16;4942761;28;102967;-86
2022/06/03 08:36:52;;;;;;;3.83;3.53;;;;;;;19.69;70.69;101426.63;4936821;28;102134;-85
2022/06/03 08:39:22;;;;;;;4.55;4.15;;;;;;;19.69;70.43;101421.09;4937367;28;102258;-85
2022/06/03 08:42:13;;;;;;;4.00;3.70;;;;;;;19.68;70.42;101416.69;4940563;28;102474;-86
2022/06/03 08:44:51;;;;;;;4.28;3.88;;;;;;;19.69;70.50;101426.63;4934789;28;103955;-86
2022/06/03 08:47:19;;;;;;;4.03;3.72;;;;;;;19.68;70.62;101413.91;4948363;28;102251;-85
2022/06/03 08:49:58;;;;;;;4.40;4.00;;;;;;;19.70;70.63;101427.44;4936987;28;102204;-85
2022/06/03 08:52:35;;;;;;;3.67;3.37;;;;;;;19.68;70.32;101411.16;4935920;28;102240;-86
2022/06/03 08:55:11;;;;;;;4.50;4.10;;;;;;;19.69;70.46;101426.63;4958564;28;103326;-86
2022/06/03 08:57:44;;;;;;;4.00;3.70;;;;;;;19.68;70.24;101416.69;4945746;28;102129;-86
2022/06/03 09:00:15;;;;;;;4.30;4.00;;;;;;;19.68;70.48;101416.69;4945903;28;102176;-87
2022/06/03 09:02:48;;;;;;;5.65;3.97;;;;;;;19.69;70.50;101410.06;4940164;28;102253;-86
2022/06/03 09:05:21;;;;;;;4.05;3.65;;;;;;;19.79;70.31;101409.75;4941432;28;103949;-85
2022/06/03 09:07:57;;;;;;;8.05;3.50;;;;;;;19.85;70.63;101402.97;4934884;28;102960;-85
2022/06/03 09:10:28;;;;;;;4.18;3.40;;;;;;;19.81;70.63;101406.69;4946708;28;103104;-86
2022/06/03 09:13:01;;;;;;;4.47;3.30;;;;;;;19.76;70.69;101404.88;4946060;28;102456;-86
2022/06/03 09:15:34;;;;;;;4.60;4.15;;;;;;;19.76;70.64;101410.38;4943082;28;103107;-85
2022/06/03 09:18:07;;;;;;;4.43;3.58;;;;;;;19.77;70.78;101406.50;4937068;28;102257;-86
2022/06/03 09:20:39;;;;;;;4.38;3.90;;;;;;;19.76;70.31;101398.53;4957300;28;102740;-85
2022/06/03 09:23:10;;;;;;;6.13;4.22;;;;;;;19.74;70.52;101396.09;4935661;22;102473;-88
2022/06/03 09:25:43;;;;;;;3.78;3.42;;;;;;;19.75;70.52;101408.75;4933471;28;103655;-87
2022/06/03 09:28:15;;;;;;;3.80;3.50;;;;;;;19.75;70.50;101414.28;4931945;28;102843;-87
2022/06/03 09:30:46;;;;;;;4.05;3.63;;;;;;;19.74;70.48;101418.19;4935871;28;102206;-88
2022/06/03 09:33:16;;;;;;;5.85;3.80;;;;;;;19.73;70.43;101415.75;4934849;28;102460;-87
2022/06/03 09:35:45;;;;;;;5.75;4.03;;;;;;;19.73;70.29;101419.34;4930886;28;104062;-87
2022/06/03 09:38:16;;;;;;;4.93;3.63;;;;;;;19.73;70.53;101416.56;4935846;28;102813;-87
2022/06/03 09:40:47;;;;;;;4.07;3.67;;;;;;;19.73;70.59;101422.09;4933304;28;102411;-85
2022/06/03 09:43:18;;;;;;;4.03;3.73;;;;;;;19.74;70.54;101422.91;4929621;28;102220;-87
2022/06/03 09:45:46;;;;;;;4.85;3.95;;;;;;;19.73;70.68;101419.34;4932453;28;104033;-88
2022/06/03 09:48:16;;;;;;;4.85;3.53;;;;;;;19.73;70.38;101415.75;4934190;28;102218;-87
2022/06/03 09:50:46;;;;;;;4.03;3.70;;;;;;;19.72;70.28;101423.19;4927707;28;102587;-87
2022/06/03 09:53:18;;;;;;;4.13;3.83;;;;;;;19.71;70.52;101423.53;4935398;28;102614;-87
2022/06/03 09:55:50;;;;;;;4.00;3.70;;;;;;;19.71;70.56;101424.34;4933814;28;104026;-87
2022/06/03 09:58:21;;;;;;;3.97;3.67;;;;;;;19.71;70.68;101418.81;4924262;28;102498;-87
2022/06/03 10:00:51;;;;;;;4.00;3.45;;;;;;;19.70;70.91;101416.38;4937324;28;102751;-87
2022/06/03 10:03:19;;;;;;;5.38;3.70;;;;;;;19.69;70.88;101423.84;4936792;28;102647;-87
2022/06/03 10:05:49;;;;;;;4.60;3.70;;;;;;;19.70;70.95;101421.91;4936565;28;103922;-87
2022/06/03 10:08:20;;;;;;;4.28;3.97;;;;;;;19.71;70.83;101424.34;4932697;28;102213;-87
2022/06/03 10:13:38;;;;;;;4.00;3.70;;;;;;;19.70;70.78;101421.91;4936299;28;102305;-87
2022/06/03 10:16:08;;;;;;;4.35;3.95;;;;;;;19.70;70.63;101417.19;4933683;28;103926;-87
2022/06/03 10:18:36;;;;;;;;;;;;;;;19.70;70.83;101410.88;4934613;28;102139;-87
2022/06/03 10:21:26;;;;;;;4.65;4.10;;;;;;;19.68;70.70;101417.50;4931620;28;102379;-87
2022/06/03 10:23:57;;;;;;;4.47;4.07;;;;;;;19.66;70.69;101419.78;4934720;28;102433;-86
2022/06/03 10:26:26;;;;;;;4.57;3.95;;;;;;;19.68;70.82;101428.53;4934457;28;103936;-87
2022/06/03 10:28:55;;;;;;;4.63;4.22;;;;;;;19.67;70.86;101420.59;4934477;28;103014;-87
2022/06/03 10:31:28;;;;;;;5.10;3.90;;;;;;;19.66;70.78;101421.72;4917358;28;102559;-87
2022/06/03 10:33:58;;;;;;;4.20;3.88;;;;;;;19.65;70.96;101422.84;4934952;28;102135;-87
2022/06/03 10:36:29;;;;;;;3.78;3.47;;;;;;;19.65;71.14;101422.84;4932336;28;103938;-87
2022/06/03 10:38:57;;;;;;;5.00;4.10;;;;;;;19.65;70.91;101420.06;4933802;28;102449;-87
2022/06/03 10:41:32;;;;;;;4.30;4.00;;;;;;;19.65;71.19;101420.91;4933043;28;103857;-87
2022/06/03 10:43:59;;;;;;;5.88;3.70;;;;;;;19.64;70.93;101419.25;4933958;28;103070;-87
2022/06/03 10:46:26;;;;;;;4.60;4.20;;;;;;;19.62;71.36;101420.69;4933053;28;103933;-87
2022/06/03 10:48:52;;;;;;;5.65;3.72;;;;;;;19.65;70.90;101431.13;4931596;28;102592;-87
2022/06/03 11:01:06;;;;;;;4.35;3.97;;;;;;;19.65;70.87;101425.59;4932291;28;102484;-87
2022/06/03 11:02:31;;;;;;;3.65;3.40;;;;;;;19.63;71.16;101414.88;4923530;28;102718;-89
2022/06/03 11:05:11;;;;;;;4.30;3.97;;;;;;;19.61;70.95;101419.03;4933465;28;102476;-88
2022/06/03 11:07:40;;;;;;;4.50;4.13;;;;;;;19.61;70.99;101413.53;4940048;28;104524;-88
2022/06/03 11:10:14;;;;;;;4.35;4.00;;;;;;;19.62;71.25;101420.69;4943446;28;102440;-90
2022/06/03 11:12:42;;;;;;;4.25;3.83;;;;;;;19.60;71.14;101409.13;4934117;28;102386;-89
2022/06/03 11:15:31;;;;;;;3.97;3.67;;;;;;;19.61;71.16;101413.53;4934380;28;103264;-89
2022/06/03 11:18:00;;;;;;;4.00;3.70;;;;;;;19.63;70.98;101423.16;4930926;28;104296;-84
2022/06/03 11:20:36;;;;;;;4.50;4.20;;;;;;;19.62;70.97;101412.41;4928608;28;102648;-84
2022/06/03 11:23:05;;;;;;;4.07;3.70;;;;;;;19.61;70.78;101402.47;4930402;28;102610;-84
2022/06/03 11:25:34;;;;;;;;;;;;;;;19.61;71.12;101408.00;4935330;28;102412;-84
2022/06/03 11:28:02;;;;;;;;;;;;;;;19.61;71.14;101397.75;4934430;28;103900;-84
2022/06/03 11:30:34;;;;;;;5.13;3.70;;;;;;;19.62;71.05;101406.91;4934549;28;102808;-84
2022/06/03 11:33:04;;;;;;;4.30;4.00;;;;;;;19.63;70.96;101409.34;4935839;28;102347;-84
2022/06/03 11:35:38;;;;;;;4.25;3.65;;;;;;;19.62;71.06;101398.59;4929899;28;102453;-84
2022/06/03 11:38:09;;;;;;;3.85;3.55;;;;;;;19.62;70.80;101412.41;4935197;28;103908;-84
2022/06/03 11:40:43;;;;;;;4.10;3.70;;;;;;;19.62;71.24;101401.38;4935808;28;102254;-84
2022/06/03 11:43:15;;;;;;;4.22;3.90;;;;;;;19.62;71.08;101398.59;4935180;28;101992;-85
2022/06/03 11:45:47;;;;;;;4.68;4.28;;;;;;;19.64;70.71;101401.88;4936908;28;102588;-85
2022/06/03 11:48:21;;;;;;;4.10;3.70;;;;;;;19.62;71.03;101404.13;4935694;28;104076;-85
2022/06/03 11:50:48;;;;;;;4.38;3.97;;;;;;;19.61;71.14;101408.00;4935460;28;102424;-84
2022/06/03 11:53:19;;;;;;;5.38;4.65;;;;;;;19.61;71.16;101413.53;4936622;28;102758;-84
2022/06/03 11:55:47;;;;;;;4.60;4.20;;;;;;;19.62;71.08;101415.19;4937154;28;102376;-85
2022/06/03 11:58:19;;;;;;;4.83;4.10;;;;;;;19.64;70.92;101412.94;4933591;28;104163;-85
2022/06/03 12:00:49;;;;;;;4.13;3.80;;;;;;;19.62;70.93;101417.94;4924713;28;102160;-85
2022/06/03 12:03:33;;;;;;;4.43;4.10;;;;;;;19.62;71.14;101415.19;4932096;28;102781;-85
2022/06/03 12:06:07;;;;;;;4.05;3.63;;;;;;;19.61;70.88;101413.53;4937691;28;102500;-85
2022/06/03 12:08:48;;;;;;;3.85;3.55;;;;;;;19.61;71.02;101408.81;4935845;28;103150;-84
2022/06/03 12:14:25;;;;;;;4.40;3.60;;;;;;;19.61;71.16;101408.81;4935219;28;102311;-85
2022/06/03 12:16:57;;;;;;;5.05;3.60;;;;;;;19.62;71.02;101413.25;4931384;28;102422;-84
2022/06/03 12:19:43;;;;;;;4.40;3.95;;;;;;;19.60;71.07;101407.19;4933713;28;103918;-85
2022/06/03 12:22:35;;;;;;;4.80;3.65;;;;;;;19.61;71.08;101413.53;4935302;28;102054;-84
2022/06/03 12:25:04;;;;;;;4.75;3.95;;;;;;;19.61;71.04;101413.53;4930629;28;102228;-84
2022/06/03 12:27:35;;;;;;;4.15;3.85;;;;;;;19.60;71.29;101406.38;4939492;28;102569;-85
2022/06/03 12:30:33;;;;;;;3.95;3.65;;;;;;;19.59;71.19;101405.56;4934922;28;103869;-85
2022/06/03 12:33:03;;;;;;;5.32;4.55;;;;;;;19.60;71.03;101406.38;4931894;28;102605;-85
2022/06/03 12:35:58;;;;;;;4.70;4.30;;;;;;;19.59;70.98;101408.31;4937034;28;103051;-85
2022/06/03 12:38:50;;;;;;;4.45;3.70;;;;;;;19.60;71.21;101400.84;4938589;28;102544;-84
2022/06/03 12:41:54;;;;;;;4.70;4.30;;;;;;;19.59;71.21;101396.47;4936993;28;107833;-84
2022/06/03 12:44:44;;;;;;;3.47;3.28;;;;;;;19.60;71.22;101400.84;4932722;28;102588;-84
2022/06/03 12:47:49;;;;;;;4.32;4.03;;;;;;;19.60;71.17;101403.63;4933573;28;102431;-84
2022/06/03 12:50:35;;;;;;;4.10;3.70;;;;;;;19.59;71.21;101402.00;4937781;28;103062;-84
2022/06/03 12:53:23;;;;;;;5.25;3.95;;;;;;;19.60;71.25;101409.13;4938071;28;103886;-85
2022/06/03 12:55:55;;;;;;;4.30;3.90;;;;;;;19.60;71.26;101412.72;4939456;28;102209;-85
2022/06/03 12:58:39;;;;;;;4.53;4.15;;;;;;;19.62;71.15;101406.91;4937560;28;102366;-84